UA6028 / N86350 7700 Squawk Report (15th of January, 2020)

Aircraft E75L Reg No. N86350 Age N/A
Model Emb-175 Jet engines 2 First flight N/A
Registered 01-06-17 Rollout N/A Delivered 01-06-17
Construction No. 17000663 Line No. N/A Series 200LR
ADSHEX ABDD1C Airline name United Express Owner Mesa Airlines
Airfield based Houston-George Bush Intercontinental~TX~N First tracked 2017-07-13 12:33:00

Flight history for N86350

Route Flight No Date Playback
George Bush Intercontinental (IAH) - Tucson Intl (TUS) UA6100 2020-02-17 15:18:00
Washington Dulles International (IAD) - George Bush Intercontinental (IAH) UA6045 2020-02-17 06:23:00
Washington Dulles International (IAD) - Pittsburgh Intl (PIT) - Washington Dulles International (IAD) UA6015 2020-02-17 02:07:00
Toronto Pearson International (YYZ) - George Bush Intercontinental (IAH) UA6022 2020-02-16 20:32:00
George Bush Intercontinental (IAH) - Minneapolis-St.Paul Intl (MSP) UA6036 2020-02-16 17:43:00
Mc Allen Miller Intl (MFE) - George Bush Intercontinental (IAH) UA6342 2020-02-16 14:42:00
George Bush Intercontinental (IAH) - Mc Allen Miller Intl (MFE) UA6188 2020-02-16 01:13:00
Queretaro Intercontinental (QRO) - George Bush Intercontinental (IAH) UA6317 2020-02-15 23:00:00
George Bush Intercontinental (IAH) - Queretaro Intercontinental (QRO) UA6214 2020-02-15 21:25:00
Ronald Reagan Washington Natl (DCA) - George Bush Intercontinental (IAH) UA6270 2020-02-15 16:12:00
Philadelphia Intl (PHL) - George Bush Intercontinental (IAH) UA6232 2020-02-15 04:42:00
General Mariano Escobedo (MTY) - George Bush Intercontinental (IAH) UA6175 2020-02-14 23:42:00
George Bush Intercontinental (IAH) - General Mariano Escobedo (MTY) UA6117 2020-02-14 21:59:00
Southwest Florida Intl (RSW) - George Bush Intercontinental (IAH) UA6065 2020-02-14 19:41:00
George Bush Intercontinental (IAH) - Southwest Florida Intl (RSW) UA6325 2020-02-14 15:30:00
Dallas Fort Worth (DFW) - George Bush Intercontinental (IAH) UA6273 2020-02-14 12:29:00
Washington Dulles International (IAD) - Dallas Fort Worth (DFW) UA6296 2020-02-14 04:02:00
Washington Dulles International (IAD) - Bradley Intl (BDL) - Washington Dulles International (IAD) UA6024 2020-02-14 00:21:00
Dallas Fort Worth (DFW) - Washington Dulles International (IAD) UA6076 2020-02-13 16:26:00
???? UA6143 2020-02-13 03:49:00
Time Lat Lon Altitude Heading Speed Vertical Rate
2020-01-15 14:56:50 GMT 30.007187 -95.323792 75 271 136 -704
2020-01-15 14:56:38 GMT 30.007187 -95.314423 225 270 136 -768
2020-01-15 14:56:22 GMT 30.007200 -95.303322 400 270 135 -704
2020-01-15 14:56:01 GMT 30.007154 -95.291946 600 270 136 -704
2020-01-15 14:55:51 GMT 30.007187 -95.280815 775 271 135 -704
2020-01-15 14:55:36 GMT 30.007187 -95.269775 950 270 133 -640
2020-01-15 14:55:20 GMT 30.007233 -95.259056 1,125 270 131 -768
2020-01-15 14:55:10 GMT 30.007248 -95.255310 1,175 270 132 -704
2020-01-15 14:55:05 GMT 30.007233 -95.248177 1,300 270 131 -640
2020-01-15 14:54:57 GMT 30.007248 -95.246849 1,325 270 131 -640
2020-01-15 14:54:44 GMT 30.007233 -95.237732 1,475 270 139 -768
2020-01-15 14:54:37 GMT 30.007233 -95.231918 1,575 270 146 -896
2020-01-15 14:54:34 GMT 30.007233 -95.224968 1,700 270 152 -832
2020-01-15 14:54:26 GMT 30.007233 -95.223732 1,725 270 153 -768
2020-01-15 14:54:16 GMT 30.007248 -95.214989 1,825 270 154 -64
2020-01-15 14:54:05 GMT 30.007233 -95.206284 1,825 270 154 64
2020-01-15 14:53:59 GMT 30.007200 -95.201477 1,825 270 154 -64
2020-01-15 14:53:54 GMT 30.007233 -95.197395 1,825 270 155 64
2020-01-15 14:53:44 GMT 30.007233 -95.189102 1,825 270 155 64
2020-01-15 14:53:37 GMT 30.007248 -95.183296 1,825 270 155 -64
2020-01-15 14:53:34 GMT 30.007278 -95.180489 1,825 270 156 -128
2020-01-15 14:53:31 GMT 30.007278 -95.173752 1,825 270 156 -192
2020-01-15 14:53:24 GMT 30.007278 -95.171974 1,850 270 169 128
2020-01-15 14:53:13 GMT 30.007278 -95.161797 1,825 270 186 0
2020-01-15 14:53:01 GMT 30.007248 -95.144516 1,825 270 186 64
2020-01-15 14:52:52 GMT 30.007248 -95.141327 1,825 270 186 64
2020-01-15 14:52:40 GMT 30.007294 -95.129135 1,825 270 186 -64
2020-01-15 14:52:29 GMT 30.007278 -95.112900 1,825 271 188 -64
2020-01-15 14:52:20 GMT 30.007248 -95.109085 1,825 271 188 64
2020-01-15 14:52:10 GMT 30.007187 -95.099007 1,825 271 186 0
2020-01-15 14:51:58 GMT 30.007141 -95.082634 1,825 270 187 -64
2020-01-15 14:51:49 GMT 30.007141 -95.078644 1,825 270 187 -64
2020-01-15 14:51:39 GMT 30.007187 -95.068733 1,825 271 186 64
2020-01-15 14:51:27 GMT 30.007059 -95.051682 1,825 270 188 -128
2020-01-15 14:51:18 GMT 30.007107 -95.047775 1,825 270 187 0
2020-01-15 14:51:08 GMT 30.007370 -95.037125 1,825 267 187 64
2020-01-15 14:50:57 GMT 30.008224 -95.021080 1,825 267 187 0
2020-01-15 14:50:47 GMT 30.008457 -95.016304 1,825 266 186 -64
2020-01-15 14:50:37 GMT 30.009750 -95.006752 1,825 254 182 64
2020-01-15 14:50:25 GMT 30.016277 -94.992958 1,950 229 175 -1216
2020-01-15 14:50:16 GMT 30.018652 -94.989937 2,025 227 175 -1280
2020-01-15 14:50:05 GMT 30.024902 -94.982460 2,275 226 176 -1344
2020-01-15 14:49:54 GMT 30.035477 -94.973740 2,675 200 175 -1536
2020-01-15 14:49:44 GMT 30.039087 -94.972794 2,775 188 176 -1536
2020-01-15 14:49:34 GMT 30.047562 -94.972305 3,050 183 176 -1472
2020-01-15 14:49:23 GMT 30.060223 -94.971695 3,400 183 175 -1472
2020-01-15 14:49:13 GMT 30.064316 -94.971474 3,525 183 175 -1408
2020-01-15 14:49:09 GMT 30.072605 -94.971146 3,775 182 175 -1344
2020-01-15 14:49:03 GMT 30.072977 -94.971146 3,775 182 175 -1344
2020-01-15 14:48:52 GMT 30.081299 -94.970940 4,000 182 177 -1280
2020-01-15 14:48:42 GMT 30.090017 -94.970871 4,225 177 178 -1280
2020-01-15 14:48:38 GMT 30.098099 -94.972282 4,400 159 184 -1024
2020-01-15 14:48:32 GMT 30.098373 -94.972443 4,400 158 185 -960
2020-01-15 14:48:20 GMT 30.106821 -94.979881 4,475 130 206 64
2020-01-15 14:48:07 GMT 30.115219 -95.000557 4,725 112 240 -512
2020-01-15 14:48:00 GMT 30.115667 -95.001747 4,525 112 240 -512
2020-01-15 14:47:50 GMT 30.119995 -95.013718 4,650 112 250 -896
2020-01-15 14:47:36 GMT 30.129410 -95.039116 4,750 113 266 -320
2020-01-15 14:47:28 GMT 30.130188 -95.041214 4,800 113 271 -768
2020-01-15 14:47:19 GMT 30.135078 -95.054314 4,975 113 273 -1536
2020-01-15 14:47:05 GMT 30.144995 -95.080681 5,450 113 278 -1088
2020-01-15 14:46:58 GMT 30.145786 -95.082771 5,475 113 278 -1088
2020-01-15 14:46:47 GMT 30.151016 -95.096687 5,725 113 278 -1088
2020-01-15 14:46:34 GMT 30.162186 -95.126518 5,825 113 282 0
2020-01-15 14:46:26 GMT 30.162186 -95.126518 5,825 113 282 0
2020-01-15 14:46:22 GMT 30.164547 -95.132866 5,825 113 282 -64
2020-01-15 14:46:16 GMT 30.167953 -95.141869 5,825 113 282 -64
2020-01-15 14:46:03 GMT 30.176926 -95.165833 5,825 113 284 -64
2020-01-15 14:45:54 GMT 30.178467 -95.169998 5,825 113 284 0
2020-01-15 14:45:45 GMT 30.183380 -95.183174 5,825 113 285 64
2020-01-15 14:45:32 GMT 30.193037 -95.209061 5,825 113 273 0
2020-01-15 14:45:24 GMT 30.194572 -95.213120 5,825 113 286 0
2020-01-15 14:45:14 GMT 30.199739 -95.227074 5,825 113 285 -64
2020-01-15 14:45:01 GMT 30.209236 -95.252838 5,825 112 276 64
2020-01-15 14:44:53 GMT 30.210447 -95.256081 5,825 112 275 64
2020-01-15 14:44:42 GMT 30.215614 -95.270142 5,825 112 273 0
2020-01-15 14:44:30 GMT 30.224579 -95.294655 5,825 112 273 0
2020-01-15 14:44:21 GMT 30.226042 -95.298706 5,825 113 273 0
2020-01-15 14:44:08 GMT 30.232372 -95.315956 5,825 113 273 0
2020-01-15 14:43:59 GMT 30.240051 -95.336716 5,825 113 273 0
2020-01-15 14:43:50 GMT 30.241379 -95.340378 5,825 113 273 0
2020-01-15 14:43:39 GMT 30.246964 -95.355515 5,825 113 273 0
2020-01-15 14:43:28 GMT 30.255478 -95.378616 5,825 113 273 0
2020-01-15 14:43:18 GMT 30.257372 -95.383797 5,825 113 273 0
2020-01-15 14:43:07 GMT 30.270779 -95.420433 5,825 113 273 0
2020-01-15 14:42:57 GMT 30.270779 -95.420433 5,825 112 272 0
2020-01-15 14:42:47 GMT 30.272314 -95.424606 5,825 112 272 0
2020-01-15 14:42:36 GMT 30.277725 -95.439468 5,825 112 272 0
2020-01-15 14:42:26 GMT 30.286102 -95.462250 5,825 113 281 -64
2020-01-15 14:42:16 GMT 30.287817 -95.466965 5,850 113 283 -384
2020-01-15 14:42:06 GMT 30.293217 -95.481522 5,975 113 283 -1344
2020-01-15 14:42:03 GMT 30.294800 -95.485855 6,075 113 283 -1664
2020-01-15 14:41:54 GMT 30.302216 -95.505768 6,450 113 283 -1408
2020-01-15 14:41:45 GMT 30.304016 -95.510521 6,525 114 285 -1280
2020-01-15 14:41:37 GMT 30.309696 -95.524307 6,700 118 286 -896
2020-01-15 14:41:21 GMT 30.319891 -95.542107 6,950 128 288 -1024
2020-01-15 14:41:16 GMT 30.325470 -95.550140 7,025 128 288 -1152
2020-01-15 14:41:10 GMT 30.328644 -95.554741 7,150 128 290 -1344
2020-01-15 14:41:07 GMT 30.331741 -95.559242 7,300 128 290 -1408
2020-01-15 14:41:03 GMT 30.335175 -95.564201 7,275 128 290 -1408
2020-01-15 14:41:00 GMT 30.337673 -95.567818 7,350 128 290 -1408
2020-01-15 14:40:53 GMT 30.348755 -95.583855 7,650 128 288 -1280
2020-01-15 14:40:45 GMT 30.351082 -95.587265 7,800 128 293 -64
2020-01-15 14:40:42 GMT 30.352385 -95.589073 7,800 128 293 -64
2020-01-15 14:40:36 GMT 30.362320 -95.603401 7,825 128 292 -192
2020-01-15 14:40:30 GMT 30.362320 -95.603401 7,825 128 292 -64
2020-01-15 14:40:23 GMT 30.368631 -95.612534 7,825 128 293 0
2020-01-15 14:40:19 GMT 30.371841 -95.617188 7,825 128 293 0
2020-01-15 14:40:13 GMT 30.377104 -95.624779 7,825 128 293 0
2020-01-15 14:40:08 GMT 30.381363 -95.630867 7,825 128 293 0
2020-01-15 14:40:02 GMT 30.386444 -95.638306 7,825 128 293 64
2020-01-15 14:39:58 GMT 30.389954 -95.643402 7,825 128 293 -64
2020-01-15 14:39:53 GMT 30.394913 -95.650581 7,825 128 293 64
2020-01-15 14:39:48 GMT 30.398254 -95.655426 7,825 128 293 0
2020-01-15 14:39:42 GMT 30.403591 -95.663124 7,825 128 293 -64
2020-01-15 14:39:39 GMT 30.406898 -95.667900 7,825 128 292 0
2020-01-15 14:39:30 GMT 30.413740 -95.677841 7,825 128 293 0
2020-01-15 14:39:26 GMT 30.416767 -95.682297 7,825 128 293 0
2020-01-15 14:39:21 GMT 30.421280 -95.688873 7,825 128 293 64
2020-01-15 14:39:18 GMT 30.424713 -95.693825 7,825 128 292 64
2020-01-15 14:39:11 GMT 30.430546 -95.702347 7,825 128 292 0
2020-01-15 14:39:07 GMT 30.433090 -95.705994 7,825 128 292 64
2020-01-15 14:38:59 GMT 30.448746 -95.728722 7,950 128 292 64
2020-01-15 14:38:50 GMT 30.448746 -95.728722 7,900 128 293 -832
2020-01-15 14:38:47 GMT 30.449753 -95.730232 7,900 128 293 -640
2020-01-15 14:38:39 GMT 30.456848 -95.740517 7,950 128 292 0
2020-01-15 14:38:36 GMT 30.460236 -95.745422 7,950 128 292 64
2020-01-15 14:38:28 GMT 30.466003 -95.753822 7,950 128 292 0
2020-01-15 14:38:17 GMT 30.476120 -95.768524 7,950 128 292 0
2020-01-15 14:38:13 GMT 30.478821 -95.772453 7,950 128 293 64
2020-01-15 14:38:07 GMT 30.486456 -95.783531 7,950 128 293 -64
2020-01-15 14:38:04 GMT 30.486456 -95.783531 7,950 128 293 0
2020-01-15 14:37:58 GMT 30.495581 -95.796829 7,950 128 293 0
2020-01-15 14:37:53 GMT 30.495581 -95.796829 7,950 128 293 -64
2020-01-15 14:37:45 GMT 30.506426 -95.812645 7,950 128 293 -64
2020-01-15 14:37:35 GMT 30.511826 -95.820557 7,950 128 293 0
2020-01-15 14:37:26 GMT 30.518417 -95.830185 7,950 128 293 0
2020-01-15 14:37:16 GMT 30.527115 -95.842896 7,950 128 292 0
2020-01-15 14:37:06 GMT 30.535904 -95.855820 7,950 128 292 0
2020-01-15 14:36:54 GMT 30.544968 -95.869125 7,950 128 292 64
2020-01-15 14:36:51 GMT 30.547989 -95.873543 7,950 128 292 0
2020-01-15 14:36:45 GMT 30.553345 -95.881454 7,950 128 292 0
2020-01-15 14:36:41 GMT 30.556366 -95.885872 7,950 128 292 0
2020-01-15 14:36:34 GMT 30.562088 -95.894272 7,950 128 292 0
2020-01-15 14:36:30 GMT 30.565594 -95.899437 7,950 128 292 64
2020-01-15 14:36:24 GMT 30.571152 -95.907578 7,950 128 292 0
2020-01-15 14:36:20 GMT 30.573927 -95.911690 7,950 128 291 0
2020-01-15 14:36:12 GMT 30.580170 -95.920876 7,950 128 291 0
2020-01-15 14:36:08 GMT 30.583466 -95.925667 7,950 128 291 0
2020-01-15 14:36:02 GMT 30.589056 -95.933884 7,950 128 291 -64
2020-01-15 14:35:59 GMT 30.591568 -95.937569 7,950 128 291 0
2020-01-15 14:35:53 GMT 30.597437 -95.946129 7,950 128 291 64
2020-01-15 14:35:50 GMT 30.599945 -95.949852 7,950 128 291 0
2020-01-15 14:35:41 GMT 30.606792 -95.959862 7,950 128 291 0
2020-01-15 14:35:38 GMT 30.608841 -95.962830 7,950 128 291 0
2020-01-15 14:35:32 GMT 30.614639 -95.971283 7,950 128 291 0
2020-01-15 14:35:25 GMT 30.623972 -95.984909 7,950 128 291 0
2020-01-15 14:35:20 GMT 30.624296 -95.985405 7,950 128 292 0
2020-01-15 14:35:17 GMT 30.626404 -95.988464 7,950 128 292 0
2020-01-15 14:35:11 GMT 30.632303 -95.997055 7,950 128 291 64
2020-01-15 14:35:07 GMT 30.635098 -96.001114 7,950 128 291 0
2020-01-15 14:35:00 GMT 30.641327 -96.010170 7,950 128 291 0
2020-01-15 14:34:56 GMT 30.644175 -96.014359 7,950 128 291 0
2020-01-15 14:34:49 GMT 30.650024 -96.022827 7,950 128 291 0
2020-01-15 14:34:46 GMT 30.653091 -96.027237 7,950 128 291 -64
2020-01-15 14:34:37 GMT 30.660187 -96.037529 7,950 128 292 0
2020-01-15 14:34:34 GMT 30.662748 -96.041214 7,950 128 292 0
2020-01-15 14:34:28 GMT 30.670290 -96.052040 7,950 129 293 0
2020-01-15 14:34:25 GMT 30.670290 -96.052040 7,950 130 293 -128
2020-01-15 14:34:18 GMT 30.677444 -96.061974 7,950 130 292 -128
2020-01-15 14:34:06 GMT 30.690866 -96.076759 7,950 147 285 0
2020-01-15 14:33:56 GMT 30.700516 -96.082008 7,950 162 277 128
2020-01-15 14:33:52 GMT 30.703995 -96.083084 7,950 166 276 128
2020-01-15 14:33:47 GMT 30.711044 -96.084000 7,950 178 271 -64
2020-01-15 14:33:43 GMT 30.716330 -96.084122 7,950 179 271 0
2020-01-15 14:33:36 GMT 30.724136 -96.084167 8,025 179 270 -64
2020-01-15 14:33:32 GMT 30.729784 -96.084175 8,025 179 270 -64
2020-01-15 14:33:22 GMT 30.749222 -96.084221 7,950 180 270 0
2020-01-15 14:33:16 GMT 30.749941 -96.084229 7,950 180 270 0
2020-01-15 14:33:12 GMT 30.763229 -96.084221 7,950 180 270 0
2020-01-15 14:33:06 GMT 30.763229 -96.084221 7,950 180 270 0
2020-01-15 14:33:01 GMT 30.768265 -96.084221 7,950 180 270 64
2020-01-15 14:32:54 GMT 30.776779 -96.084221 7,950 180 270 64
2020-01-15 14:32:51 GMT 30.780762 -96.084221 8,025 181 271 -512
2020-01-15 14:32:44 GMT 30.789604 -96.084175 7,975 181 271 -512
2020-01-15 14:32:41 GMT 30.794630 -96.084175 8,025 181 271 -704
2020-01-15 14:32:33 GMT 30.804886 -96.084106 8,100 181 272 -704
2020-01-15 14:32:30 GMT 30.806992 -96.084053 8,125 181 272 -704
2020-01-15 14:32:20 GMT 30.828278 -96.083786 8,325 181 274 -704
2020-01-15 14:32:13 GMT 30.829285 -96.083733 8,325 181 274 -704
2020-01-15 14:32:09 GMT 30.833595 -96.083679 8,375 181 275 -704
2020-01-15 14:32:03 GMT 30.846680 -96.083466 8,475 182 277 -768
2020-01-15 14:31:59 GMT 30.846680 -96.083466 8,475 182 277 -768
2020-01-15 14:31:51 GMT 30.858444 -96.083199 8,600 182 277 -768
2020-01-15 14:31:41 GMT 30.869797 -96.082764 8,725 185 277 -704
2020-01-15 14:31:38 GMT 30.873631 -96.082474 8,725 185 277 -704
2020-01-15 14:31:30 GMT 30.885641 -96.079559 8,825 204 274 -704
2020-01-15 14:31:27 GMT 30.886826 -96.079048 8,850 204 274 -704
2020-01-15 14:31:17 GMT 30.902206 -96.065208 8,950 241 270 -64
2020-01-15 14:31:11 GMT 30.903671 -96.062836 8,950 238 270 -64
2020-01-15 14:31:08 GMT 30.911291 -96.046051 8,950 244 271 -64
2020-01-15 14:30:57 GMT 30.911291 -96.046051 8,950 244 271 -128
2020-01-15 14:30:48 GMT 30.916580 -96.033752 9,025 244 271 -576
2020-01-15 14:30:39 GMT 30.921486 -96.022484 9,100 244 273 -576
2020-01-15 14:30:36 GMT 30.923302 -96.018257 9,150 244 273 -576
2020-01-15 14:30:29 GMT 30.927475 -96.008659 9,200 244 273 -576
2020-01-15 14:30:25 GMT 30.929810 -96.003326 9,225 244 273 -576
2020-01-15 14:30:14 GMT 30.938337 -95.983597 9,375 244 274 -576
2020-01-15 14:30:07 GMT 30.939268 -95.981453 9,425 244 274 -576
2020-01-15 14:30:03 GMT 30.942247 -95.974640 9,425 244 274 -576
2020-01-15 14:29:58 GMT 30.945414 -95.967224 9,475 244 275 -576
2020-01-15 14:29:43 GMT 30.956268 -95.942039 9,600 244 275 -576
2020-01-15 14:29:37 GMT 30.957184 -95.939941 9,675 244 275 -512
2020-01-15 14:29:33 GMT 30.958866 -95.935966 9,700 244 276 -384
2020-01-15 14:29:24 GMT 30.964508 -95.922867 9,750 244 277 -384
2020-01-15 14:29:13 GMT 30.973810 -95.901306 9,850 244 278 -384
2020-01-15 14:29:03 GMT 30.976730 -95.894539 9,875 244 278 -384
2020-01-15 14:28:54 GMT 30.981213 -95.884109 9,925 244 278 -384
2020-01-15 14:28:49 GMT 30.984558 -95.876343 9,950 244 278 -256
2020-01-15 14:28:45 GMT 30.987219 -95.870163 9,950 244 278 0
2020-01-15 14:28:40 GMT 30.989265 -95.865326 9,950 244 278 0
2020-01-15 14:28:33 GMT 30.993301 -95.855980 9,950 244 278 0
2020-01-15 14:28:28 GMT 30.996277 -95.849091 9,950 244 278 0
2020-01-15 14:28:24 GMT 30.999298 -95.842140 9,950 244 278 0
2020-01-15 14:28:21 GMT 31.001175 -95.837776 9,950 244 277 0
2020-01-15 14:28:10 GMT 31.010307 -95.816658 9,950 244 277 0
2020-01-15 14:28:03 GMT 31.011192 -95.814514 9,950 244 277 0
2020-01-15 14:27:51 GMT 31.017662 -95.799576 9,950 244 277 0
2020-01-15 14:27:39 GMT 31.025116 -95.782257 9,950 244 277 0
2020-01-15 14:27:31 GMT 31.029739 -95.771484 9,950 244 277 0
2020-01-15 14:27:27 GMT 31.031443 -95.767548 9,950 244 276 0
2020-01-15 14:27:20 GMT 31.035353 -95.758377 9,950 244 276 0
2020-01-15 14:27:16 GMT 31.038208 -95.751717 9,950 244 276 0
2020-01-15 14:27:08 GMT 31.045486 -95.734596 9,950 244 276 0
2020-01-15 14:26:59 GMT 31.047546 -95.729797 9,950 244 276 0
2020-01-15 14:26:53 GMT 31.054253 -95.714043 9,950 244 276 0
2020-01-15 14:26:47 GMT 31.063190 -95.693222 9,950 244 277 0
2020-01-15 14:26:37 GMT 31.063190 -95.693222 9,950 244 277 0
2020-01-15 14:26:22 GMT 31.072363 -95.672020 9,950 244 276 0
2020-01-15 14:26:15 GMT 31.072641 -95.671364 9,950 244 276 0
2020-01-15 14:26:01 GMT 31.080597 -95.653008 9,950 244 276 0
2020-01-15 14:25:51 GMT 31.090097 -95.630936 9,950 244 276 0
2020-01-15 14:25:39 GMT 31.093369 -95.623276 9,950 244 276 0
2020-01-15 14:25:28 GMT 31.099594 -95.608734 9,950 244 276 0
2020-01-15 14:25:23 GMT 31.102341 -95.602325 9,950 244 276 0
2020-01-15 14:25:12 GMT 31.108749 -95.587357 9,950 244 277 0
2020-01-15 14:25:01 GMT 31.115191 -95.572044 9,950 244 277 64
2020-01-15 14:24:50 GMT 31.121799 -95.556503 9,950 244 277 0
2020-01-15 14:24:39 GMT 31.127480 -95.543152 9,950 244 277 0
2020-01-15 14:24:31 GMT 31.135345 -95.524666 9,950 244 277 0
2020-01-15 14:24:15 GMT 31.141167 -95.511070 9,950 244 276 0
2020-01-15 14:24:10 GMT 31.146835 -95.497902 9,950 244 276 0
2020-01-15 14:23:49 GMT 31.159601 -95.468277 9,950 244 276 0
We lost coverage of the aircraft here for a total of 9 minutes
2020-01-15 14:15:01 GMT 31.429596 -94.762032 9,950 276 279 -64
2020-01-15 14:14:52 GMT 31.428207 -94.746811 9,950 276 279 0
2020-01-15 14:14:02 GMT 31.421814 -94.671562 11,075 276 286 -2944
2020-01-15 14:13:55 GMT 31.420992 -94.661331 11,400 276 286 -2944
2020-01-15 14:13:32 GMT 31.417923 -94.626373 12,625 277 287 -3456
2020-01-15 14:13:28 GMT 31.417374 -94.620773 12,825 277 286 -3456
2020-01-15 14:13:01 GMT 31.413025 -94.577797 14,350 277 286 -3200
2020-01-15 14:12:58 GMT 31.412472 -94.571854 14,550 276 288 -3072
2020-01-15 14:12:47 GMT 31.411240 -94.556526 15,150 275 287 -3968
2020-01-15 14:12:36 GMT 31.410051 -94.538284 15,950 275 283 -4224
2020-01-15 14:12:26 GMT 31.409121 -94.524277 16,575 276 280 -3904
2020-01-15 14:12:16 GMT 31.407303 -94.508377 17,200 282 281 -3200
2020-01-15 14:12:05 GMT 31.403349 -94.493408 17,700 294 287 -2880
2020-01-15 14:11:53 GMT 31.395126 -94.476715 18,225 305 296 -2496
2020-01-15 14:11:48 GMT 31.391281 -94.471169 18,400 314 306 -2432
2020-01-15 14:11:44 GMT 31.386932 -94.465836 18,575 318 311 -2432
2020-01-15 14:11:38 GMT 31.380432 -94.459320 18,800 322 317 -2432
2020-01-15 14:11:33 GMT 31.366804 -94.449242 19,500 333 331 -2752
2020-01-15 14:11:27 GMT 31.366804 -94.449242 19,300 333 331 -2752
2020-01-15 14:11:24 GMT 31.360613 -94.445892 19,500 340 340 -3072
2020-01-15 14:11:16 GMT 31.350418 -94.441772 19,850 0 366 -3008
2020-01-15 14:11:12 GMT 31.344452 -94.439987 20,050 348 351 -3200
2020-01-15 14:11:07 GMT 31.335709 -94.438202 20,350 0 366 -3008
2020-01-15 14:11:03 GMT 31.326736 -94.437294 20,600 358 364 -2944
2020-01-15 14:10:52 GMT 31.310150 -94.437874 21,100 6 375 -3136
2020-01-15 14:10:45 GMT 31.298584 -94.439934 21,475 10 379 -3456
2020-01-15 14:10:42 GMT 31.291672 -94.441818 21,725 14 383 -3584
2020-01-15 14:10:36 GMT 31.283104 -94.444626 22,025 18 386 -3968
2020-01-15 14:10:30 GMT 31.273607 -94.448639 22,400 22 389 -4160
2020-01-15 14:10:21 GMT 31.256058 -94.459045 23,150 31 392 -3968
2020-01-15 14:10:15 GMT 31.249191 -94.464272 23,425 35 394 -3584
2020-01-15 14:10:10 GMT 31.241301 -94.471268 23,700 40 398 -2688
2020-01-15 14:10:04 GMT 31.234037 -94.478630 23,875 42 402 -1728
2020-01-15 14:09:59 GMT 31.226852 -94.487000 24,000 51 414 128
2020-01-15 14:09:54 GMT 31.220537 -94.495331 23,975 51 413 64
2020-01-15 14:09:48 GMT 31.214020 -94.505272 24,000 55 416 64
2020-01-15 14:09:42 GMT 31.207411 -94.517471 24,150 65 421 -1472
2020-01-15 14:09:39 GMT 31.204058 -94.524666 24,075 63 420 -1152
2020-01-15 14:09:35 GMT 31.201309 -94.531487 24,150 66 421 -1600
2020-01-15 14:09:29 GMT 31.196228 -94.546989 24,625 77 426 -2432
2020-01-15 14:09:23 GMT 31.193352 -94.558884 24,825 89 439 -2432
2020-01-15 14:09:18 GMT 31.191397 -94.569710 24,800 80 429 -2368
2020-01-15 14:09:12 GMT 31.189957 -94.582108 24,925 82 431 -2368
2020-01-15 14:09:08 GMT 31.189224 -94.594276 25,200 88 435 -2432
2020-01-15 14:09:00 GMT 31.188929 -94.610634 25,500 88 439 -2432
2020-01-15 14:08:57 GMT 31.188742 -94.619255 25,975 84 444 -2432
2020-01-15 14:08:51 GMT 31.188091 -94.631668 25,850 84 444 -2432
2020-01-15 14:08:47 GMT 31.186787 -94.643867 26,050 80 444 -2112
2020-01-15 14:08:41 GMT 31.184786 -94.656174 27,025 58 447 -1856
2020-01-15 14:08:36 GMT 31.182039 -94.668365 26,450 71 446 -1920
2020-01-15 14:08:33 GMT 31.180435 -94.674255 26,450 71 446 -1920
2020-01-15 14:08:30 GMT 31.178513 -94.680717 26,550 69 447 -1856
2020-01-15 14:08:26 GMT 31.174484 -94.692131 26,875 60 447 -1856
2020-01-15 14:08:20 GMT 31.169422 -94.704018 26,875 61 448 -1920
2020-01-15 14:08:15 GMT 31.164022 -94.714890 27,075 56 448 -1856
2020-01-15 14:08:10 GMT 31.158484 -94.724503 27,375 51 449 -1920
2020-01-15 14:08:04 GMT 31.151825 -94.734787 27,350 51 450 -1920
2020-01-15 14:07:58 GMT 31.144192 -94.745819 27,550 51 451 -1920
2020-01-15 14:07:52 GMT 31.134659 -94.760201 27,775 53 455 -1920
2020-01-15 14:07:43 GMT 31.118122 -94.785973 28,375 53 465 -1920
2020-01-15 14:07:38 GMT 31.118122 -94.785973 28,375 53 465 -1920
2020-01-15 14:07:34 GMT 31.111771 -94.795959 28,350 53 465 -1920
2020-01-15 14:07:31 GMT 31.108154 -94.801620 28,575 53 467 -1920
2020-01-15 14:07:27 GMT 31.104126 -94.807976 28,575 53 467 -1920
2020-01-15 14:07:22 GMT 31.095451 -94.821518 28,750 53 472 -1920
2020-01-15 14:07:19 GMT 31.093403 -94.824753 28,800 53 473 -1920
2020-01-15 14:07:13 GMT 31.084419 -94.838547 29,025 53 470 -1856
2020-01-15 14:07:05 GMT 31.075378 -94.852615 29,225 53 467 -1920
2020-01-15 14:07:00 GMT 31.068871 -94.862877 29,400 53 468 -1920
2020-01-15 14:06:56 GMT 31.063658 -94.871063 29,525 53 469 -1920
2020-01-15 14:06:52 GMT 31.054092 -94.886063 29,750 53 470 -1920
2020-01-15 14:06:49 GMT 31.050297 -94.892044 29,850 53 470 -1920
2020-01-15 14:06:40 GMT 31.043106 -94.903137 30,025 53 471 -1728
2020-01-15 14:06:35 GMT 31.036285 -94.913635 30,150 53 472 -1600
2020-01-15 14:06:31 GMT 31.029673 -94.923798 30,300 52 473 -1600
2020-01-15 14:06:27 GMT 31.025299 -94.930550 30,425 53 475 -1600
2020-01-15 14:06:24 GMT 31.022411 -94.935005 30,425 53 475 -1600
2020-01-15 14:06:18 GMT 31.012527 -94.950417 30,600 53 476 -896
2020-01-15 14:06:14 GMT 31.008120 -94.957253 30,650 53 477 -640
2020-01-15 14:06:07 GMT 30.998703 -94.971855 30,700 53 488 -512
2020-01-15 14:06:04 GMT 30.994665 -94.978127 30,725 53 488 -512
2020-01-15 14:05:56 GMT 30.983414 -94.995544 30,850 53 502 -1344
2020-01-15 14:05:53 GMT 30.980328 -95.000320 30,900 52 504 -960
2020-01-15 14:05:43 GMT 30.965881 -95.022583 31,000 53 508 -256
2020-01-15 14:05:36 GMT 30.954575 -95.040085 31,000 53 508 -64
2020-01-15 14:05:32 GMT 30.950907 -95.045799 31,000 53 509 0
2020-01-15 14:05:22 GMT 30.936337 -95.068710 31,000 53 509 64
2020-01-15 14:05:14 GMT 30.925770 -95.085243 31,000 53 508 0
2020-01-15 14:05:11 GMT 30.921570 -95.091789 31,000 53 508 -64
2020-01-15 14:05:06 GMT 30.913851 -95.103806 31,000 53 508 -64
2020-01-15 14:05:03 GMT 30.909622 -95.110313 31,000 52 508 0
2020-01-15 14:05:00 GMT 30.906076 -95.115837 31,000 52 508 0
2020-01-15 14:04:53 GMT 30.893875 -95.134544 31,000 52 508 0
2020-01-15 14:04:50 GMT 30.891182 -95.138687 31,000 53 509 64
2020-01-15 14:04:43 GMT 30.880096 -95.155762 31,000 52 509 64
2020-01-15 14:04:38 GMT 30.872726 -95.167130 31,000 53 510 0
2020-01-15 14:04:33 GMT 30.866741 -95.176315 31,000 53 510 64
2020-01-15 14:04:30 GMT 30.862179 -95.183350 31,000 53 510 0
2020-01-15 14:04:25 GMT 30.855103 -95.194328 31,000 53 510 64
2020-01-15 14:04:21 GMT 30.849472 -95.203102 31,000 53 510 0
2020-01-15 14:04:17 GMT 30.839554 -95.218452 31,000 53 510 64
2020-01-15 14:04:09 GMT 30.832443 -95.229439 31,000 52 510 0
2020-01-15 14:04:06 GMT 30.828150 -95.235977 31,000 52 510 0
2020-01-15 14:04:01 GMT 30.820999 -95.246887 31,000 52 510 0
2020-01-15 14:03:58 GMT 30.817566 -95.252113 31,000 52 510 -64
2020-01-15 14:03:51 GMT 30.803011 -95.274368 31,000 53 509 0
2020-01-15 14:03:48 GMT 30.803011 -95.274368 31,000 53 510 0
2020-01-15 14:03:40 GMT 30.790741 -95.293259 31,000 53 510 0
2020-01-15 14:03:30 GMT 30.776047 -95.316032 31,000 53 509 -64
2020-01-15 14:03:20 GMT 30.761021 -95.339081 31,000 52 506 64
2020-01-15 14:03:16 GMT 30.746613 -95.361221 31,000 53 504 0
2020-01-15 14:03:09 GMT 30.746613 -95.361221 31,000 53 499 64
2020-01-15 14:02:59 GMT 30.731924 -95.384018 31,000 53 497 -64
2020-01-15 14:02:56 GMT 30.729132 -95.388298 31,000 53 496 0
2020-01-15 14:02:51 GMT 30.721544 -95.400055 31,000 53 492 0
2020-01-15 14:02:48 GMT 30.717407 -95.406403 31,000 53 492 0
2020-01-15 14:02:43 GMT 30.711823 -95.415024 31,000 53 491 -64
2020-01-15 14:02:39 GMT 30.706648 -95.422958 31,000 52 489 128
2020-01-15 14:02:35 GMT 30.699526 -95.433838 30,975 52 487 512
2020-01-15 14:02:32 GMT 30.695196 -95.440483 30,750 52 486 896
2020-01-15 14:02:27 GMT 30.689484 -95.449219 30,875 52 486 1024
2020-01-15 14:02:22 GMT 30.674744 -95.471619 30,700 52 485 1024
2020-01-15 14:02:17 GMT 30.672338 -95.475204 30,625 52 484 960
2020-01-15 14:02:09 GMT 30.662750 -95.489769 30,550 52 484 896
2020-01-15 14:02:06 GMT 30.661102 -95.492249 30,550 52 484 832
2020-01-15 14:02:03 GMT 30.657303 -95.498009 30,500 52 483 832
2020-01-15 14:02:00 GMT 30.653252 -95.504150 30,450 52 483 832
2020-01-15 14:01:56 GMT 30.646408 -95.514488 30,375 52 482 1024
2020-01-15 14:01:53 GMT 30.643988 -95.518211 30,350 52 482 1024
2020-01-15 14:01:49 GMT 30.638306 -95.526825 30,300 52 482 960
2020-01-15 14:01:46 GMT 30.629417 -95.540405 30,200 52 481 960
2020-01-15 14:01:42 GMT 30.629417 -95.540405 30,075 53 480 1024
2020-01-15 14:01:35 GMT 30.618198 -95.557655 30,025 53 480 1152
2020-01-15 14:01:29 GMT 30.610191 -95.569901 29,925 53 480 1088
2020-01-15 14:01:24 GMT 30.604279 -95.579025 29,825 52 479 1088
2020-01-15 14:01:21 GMT 30.600220 -95.585197 29,775 52 479 1024
2020-01-15 14:01:17 GMT 30.593573 -95.595337 29,700 52 478 960
2020-01-15 14:01:14 GMT 30.591337 -95.598801 29,675 52 478 896
2020-01-15 14:01:06 GMT 30.580072 -95.615936 28,300 53 477 960
2020-01-15 14:01:03 GMT 30.576141 -95.621933 29,500 53 477 960
2020-01-15 14:01:00 GMT 30.567032 -95.635986 29,400 53 476 1024
2020-01-15 14:00:56 GMT 30.567032 -95.635986 29,375 53 475 1024
2020-01-15 14:00:53 GMT 30.563416 -95.641586 29,325 53 476 1024
2020-01-15 14:00:50 GMT 30.559496 -95.647629 29,325 53 476 1024
2020-01-15 14:00:46 GMT 30.552750 -95.657959 29,200 52 475 1152
2020-01-15 14:00:43 GMT 30.545792 -95.668465 29,125 52 472 1280
2020-01-15 14:00:37 GMT 30.540783 -95.676033 29,050 52 473 1024
2020-01-15 14:00:32 GMT 30.535894 -95.683395 28,975 52 473 1024
2020-01-15 14:00:29 GMT 30.531921 -95.689407 28,925 52 472 1152
2020-01-15 14:00:25 GMT 30.523745 -95.701736 28,800 52 472 1280
2020-01-15 14:00:22 GMT 30.521090 -95.705750 28,775 52 471 1216
2020-01-15 14:00:16 GMT 30.512787 -95.718384 28,650 52 471 1216
2020-01-15 14:00:12 GMT 30.508287 -95.725197 28,350 53 470 1024
2020-01-15 14:00:08 GMT 30.504099 -95.731621 28,500 52 471 1216
2020-01-15 14:00:05 GMT 30.498884 -95.739586 28,425 53 470 1216
2020-01-15 14:00:01 GMT 30.494602 -95.746124 28,350 53 470 1024
2020-01-15 13:59:58 GMT 30.490677 -95.752151 28,325 53 470 960
2020-01-15 13:59:54 GMT 30.484175 -95.762222 28,175 53 468 896
2020-01-15 13:59:51 GMT 30.481009 -95.767052 28,175 53 467 960
2020-01-15 13:59:47 GMT 30.476624 -95.773804 28,150 53 467 960
2020-01-15 13:59:43 GMT 30.470352 -95.783333 28,075 52 466 1024
2020-01-15 13:59:40 GMT 30.466438 -95.789299 28,025 52 466 960
2020-01-15 13:59:37 GMT 30.463272 -95.794136 27,925 52 464 1024
2020-01-15 13:59:34 GMT 30.457500 -95.802925 27,925 52 464 1024
2020-01-15 13:59:30 GMT 30.452799 -95.810013 27,900 52 463 1024
2020-01-15 13:59:25 GMT 30.446049 -95.820282 27,775 52 462 1024
2020-01-15 13:59:22 GMT 30.443487 -95.824234 27,725 52 462 1024
2020-01-15 13:59:19 GMT 30.440094 -95.829323 27,700 52 461 1024
2020-01-15 13:59:16 GMT 30.435713 -95.835991 27,625 52 461 1024
2020-01-15 13:59:13 GMT 30.430035 -95.844673 27,550 52 460 1088
2020-01-15 13:59:09 GMT 30.426727 -95.849625 27,500 52 459 1088
2020-01-15 13:59:06 GMT 30.422913 -95.855438 27,450 52 458 1088
2020-01-15 13:59:02 GMT 30.415466 -95.866753 27,350 52 458 1088
2020-01-15 13:58:59 GMT 30.413269 -95.870094 27,325 52 458 1088
2020-01-15 13:58:55 GMT 30.409241 -95.876175 27,225 52 456 1152
2020-01-15 13:58:52 GMT 30.403610 -95.884689 27,225 52 456 1152
2020-01-15 13:58:49 GMT 30.399729 -95.890541 27,150 52 455 1152
2020-01-15 13:58:43 GMT 30.392048 -95.902077 27,025 52 455 1088
2020-01-15 13:58:40 GMT 30.389603 -95.905746 27,000 52 455 1088
2020-01-15 13:58:37 GMT 30.385117 -95.912582 26,925 52 454 1088
2020-01-15 13:58:33 GMT 30.378937 -95.922005 26,850 53 453 1088
2020-01-15 13:58:30 GMT 30.376419 -95.925888 26,800 53 453 1088
2020-01-15 13:58:27 GMT 30.372894 -95.931328 26,675 53 452 1088
2020-01-15 13:58:24 GMT 30.368866 -95.937515 26,700 53 452 1088
2020-01-15 13:58:20 GMT 30.360065 -95.951073 26,575 52 451 1088
2020-01-15 13:58:13 GMT 30.356016 -95.957169 26,525 52 450 1152
2020-01-15 13:58:09 GMT 30.346619 -95.971336 26,375 52 449 1216
2020-01-15 13:58:03 GMT 30.342842 -95.977058 26,325 52 448 1152
2020-01-15 13:58:00 GMT 30.339020 -95.982758 26,225 52 448 1152
2020-01-15 13:57:57 GMT 30.334991 -95.988838 26,175 53 448 1216
2020-01-15 13:57:54 GMT 30.327118 -96.001175 26,075 54 448 1216
2020-01-15 13:57:48 GMT 30.323568 -96.007103 26,075 54 448 1216
2020-01-15 13:57:45 GMT 30.320663 -96.012321 25,950 59 449 1216
2020-01-15 13:57:41 GMT 30.315628 -96.022285 25,850 61 449 1280
2020-01-15 13:57:38 GMT 30.312675 -96.028641 25,775 64 449 1280
2020-01-15 13:57:35 GMT 30.310860 -96.032974 25,650 66 450 1280
2020-01-15 13:57:29 GMT 30.304825 -96.049156 25,600 69 450 1280
2020-01-15 13:57:26 GMT 30.303226 -96.054291 25,575 70 450 1280
2020-01-15 13:57:23 GMT 30.301300 -96.060951 25,500 72 450 1216
2020-01-15 13:57:20 GMT 30.299194 -96.069466 25,425 74 450 1216
2020-01-15 13:57:17 GMT 30.296906 -96.080719 25,325 78 450 1152
2020-01-15 13:57:11 GMT 30.295578 -96.089012 25,250 80 450 1152
2020-01-15 13:57:07 GMT 30.294296 -96.099731 25,075 91 447 1152
2020-01-15 13:57:03 GMT 30.293701 -96.107376 25,125 85 449 1152
2020-01-15 13:56:58 GMT 30.293264 -96.120102 25,025 89 448 1152
2020-01-15 13:56:54 GMT 30.293449 -96.129601 24,950 92 446 1152
2020-01-15 13:56:48 GMT 30.294289 -96.145035 24,800 94 445 1152
2020-01-15 13:56:42 GMT 30.294983 -96.155952 24,750 94 445 1152
2020-01-15 13:56:39 GMT 30.295498 -96.163986 24,675 94 444 1152
2020-01-15 13:56:35 GMT 30.296814 -96.184334 24,550 94 443 1152
2020-01-15 13:56:31 GMT 30.296814 -96.184334 24,500 94 443 1152
2020-01-15 13:56:27 GMT 30.297546 -96.195190 24,400 94 442 1152
2020-01-15 13:56:23 GMT 30.298462 -96.208839 24,350 94 441 1152
2020-01-15 13:56:20 GMT 30.298462 -96.208839 24,275 94 440 1216
2020-01-15 13:56:16 GMT 30.299103 -96.218208 24,225 94 440 1216
2020-01-15 13:56:11 GMT 30.300852 -96.243973 23,925 94 438 1152
2020-01-15 13:56:05 GMT 30.300852 -96.243973 24,000 94 439 1216
2020-01-15 13:56:00 GMT 30.301737 -96.256989 23,900 94 438 1152
2020-01-15 13:55:55 GMT 30.302435 -96.267372 23,800 94 437 1088
2020-01-15 13:55:52 GMT 30.302948 -96.275291 23,750 94 436 1088
2020-01-15 13:55:49 GMT 30.303459 -96.282257 23,700 94 435 1152
2020-01-15 13:55:45 GMT 30.304064 -96.291542 23,625 94 435 1280
2020-01-15 13:55:40 GMT 30.304949 -96.305222 23,500 94 434 1152
2020-01-15 13:55:35 GMT 30.305649 -96.315956 23,400 94 433 1152
2020-01-15 13:55:31 GMT 30.306623 -96.331253 23,275 94 432 1280
2020-01-15 13:55:24 GMT 30.307205 -96.339973 23,200 94 431 1216
2020-01-15 13:55:19 GMT 30.308075 -96.353760 23,075 94 430 1280
2020-01-15 13:55:14 GMT 30.308762 -96.364639 22,975 94 429 1280
2020-01-15 13:55:09 GMT 30.309835 -96.381462 22,850 94 427 1152
2020-01-15 13:55:06 GMT 30.309835 -96.381462 22,775 94 427 1152
2020-01-15 13:55:00 GMT 30.310860 -96.397064 22,675 94 425 1152
2020-01-15 13:54:57 GMT 30.311186 -96.401627 22,650 94 425 1152
2020-01-15 13:54:53 GMT 30.311790 -96.411568 22,575 94 424 1216
2020-01-15 13:54:48 GMT 30.312607 -96.424683 22,450 93 422 1216
2020-01-15 13:54:44 GMT 30.313095 -96.433212 22,375 94 422 1344
2020-01-15 13:54:39 GMT 30.313793 -96.443977 22,275 94 421 1472
2020-01-15 13:54:31 GMT 30.315655 -96.471825 22,025 94 421 1600
2020-01-15 13:54:27 GMT 30.315655 -96.471825 21,950 94 421 1600
2020-01-15 13:54:21 GMT 30.316406 -96.482956 21,775 93 421 1536
2020-01-15 13:54:16 GMT 30.317190 -96.495941 21,675 93 420 1472
2020-01-15 13:54:11 GMT 30.317610 -96.503250 21,575 93 420 1408
2020-01-15 13:54:08 GMT 30.318075 -96.511269 21,450 94 419 1216
2020-01-15 13:54:05 GMT 30.318558 -96.518875 21,450 94 419 1216
2020-01-15 13:54:01 GMT 30.319199 -96.528679 21,350 94 417 1280
2020-01-15 13:53:56 GMT 30.320068 -96.541122 21,225 94 416 1408
2020-01-15 13:53:49 GMT 30.320801 -96.552589 21,100 93 416 1344
2020-01-15 13:53:45 GMT 30.322220 -96.576447 20,925 93 414 1344
2020-01-15 13:53:40 GMT 30.322220 -96.576447 20,875 94 414 1344
2020-01-15 13:53:34 GMT 30.322824 -96.586685 20,750 94 413 1344
2020-01-15 13:53:28 GMT 30.323639 -96.598579 20,650 94 412 1280
2020-01-15 13:53:24 GMT 30.324326 -96.608223 20,550 94 411 1344
2020-01-15 13:53:19 GMT 30.325150 -96.621414 20,400 93 410 1408
2020-01-15 13:53:13 GMT 30.325790 -96.632835 20,325 93 409 1600
2020-01-15 13:53:08 GMT 30.326454 -96.643539 20,100 94 411 2368
2020-01-15 13:53:04 GMT 30.327255 -96.655563 19,850 94 412 2944
2020-01-15 13:52:57 GMT 30.328033 -96.667030 19,575 94 416 3456
2020-01-15 13:52:53 GMT 30.328690 -96.677322 19,325 93 421 3456
2020-01-15 13:52:47 GMT 30.329435 -96.689903 19,025 93 425 2496
2020-01-15 13:52:43 GMT 30.330086 -96.701492 18,875 93 426 1600
2020-01-15 13:52:37 GMT 30.331604 -96.725838 18,725 94 426 1344
2020-01-15 13:52:33 GMT 30.331604 -96.725838 18,650 94 425 1344
2020-01-15 13:52:30 GMT 30.332415 -96.738022 17,650 93 418 1344
2020-01-15 13:52:27 GMT 30.332415 -96.738022 18,500 94 424 1344
2020-01-15 13:52:22 GMT 30.333023 -96.748459 18,400 93 423 1280
2020-01-15 13:52:16 GMT 30.334305 -96.771889 18,200 93 421 1408
2020-01-15 13:52:11 GMT 30.334305 -96.771889 18,175 93 421 1472
2020-01-15 13:52:06 GMT 30.335129 -96.785187 18,025 94 420 1536
2020-01-15 13:52:01 GMT 30.335815 -96.796120 17,900 94 420 1472
2020-01-15 13:51:55 GMT 30.336557 -96.808174 17,775 93 419 1408
2020-01-15 13:51:52 GMT 30.336914 -96.814003 17,725 93 418 1344
2020-01-15 13:51:49 GMT 30.337255 -96.819817 17,650 93 418 1344
2020-01-15 13:51:45 GMT 30.337967 -96.831825 17,525 93 417 1536
2020-01-15 13:51:40 GMT 30.338652 -96.842941 17,400 93 416 1664
2020-01-15 13:51:34 GMT 30.339386 -96.854927 17,250 93 416 1600
2020-01-15 13:51:29 GMT 30.340050 -96.866013 17,125 94 415 1472
2020-01-15 13:51:24 GMT 30.340748 -96.877495 17,025 94 414 1344
2020-01-15 13:51:19 GMT 30.341492 -96.890312 16,900 93 412 1216
2020-01-15 13:51:13 GMT 30.342142 -96.901062 16,800 93 410 1216
2020-01-15 13:51:08 GMT 30.342794 -96.912704 16,700 93 409 1216
2020-01-15 13:51:02 GMT 30.343506 -96.924507 16,500 93 407 1600
2020-01-15 13:50:58 GMT 30.344193 -96.936272 16,425 93 407 1728
2020-01-15 13:50:51 GMT 30.344891 -96.947533 16,275 93 406 1600
2020-01-15 13:50:47 GMT 30.345566 -96.958382 16,150 94 406 1472
2020-01-15 13:50:44 GMT 30.345886 -96.963608 16,100 94 406 1472
2020-01-15 13:50:41 GMT 30.346390 -96.972115 16,000 94 405 1408
2020-01-15 13:50:38 GMT 30.346752 -96.977913 15,925 94 404 1280
2020-01-15 13:50:35 GMT 30.347260 -96.986069 15,925 94 404 1280
2020-01-15 13:50:32 GMT 30.347589 -96.991646 15,775 93 401 1280
2020-01-15 13:50:28 GMT 30.348083 -96.999634 15,725 94 400 1344
2020-01-15 13:50:24 GMT 30.348568 -97.007904 15,700 94 399 1344
2020-01-15 13:50:20 GMT 30.348999 -97.015144 15,525 93 398 1344
2020-01-15 13:50:17 GMT 30.349457 -97.022797 15,450 93 396 1408
2020-01-15 13:50:14 GMT 30.349871 -97.029984 15,400 93 396 1472
2020-01-15 13:50:10 GMT 30.350281 -97.037231 15,325 92 395 1472
2020-01-15 13:50:06 GMT 30.350555 -97.044823 15,200 91 395 1536
2020-01-15 13:50:03 GMT 30.350601 -97.052414 15,150 88 394 1600
2020-01-15 13:49:59 GMT 30.350384 -97.060417 15,050 86 393 1536
2020-01-15 13:49:54 GMT 30.349638 -97.071297 14,900 82 391 1664
2020-01-15 13:49:49 GMT 30.348288 -97.082779 14,750 80 390 1792
2020-01-15 13:49:46 GMT 30.347357 -97.088654 14,650 78 391 2176
2020-01-15 13:49:36 GMT 30.343307 -97.107330 14,325 72 391 2112
2020-01-15 13:49:31 GMT 30.340393 -97.117203 14,200 70 391 1984
2020-01-15 13:49:28 GMT 30.335999 -97.130554 14,075 69 391 1728
2020-01-15 13:49:25 GMT 30.335999 -97.130554 13,975 69 390 1472
2020-01-15 13:49:22 GMT 30.333811 -97.137161 13,900 69 389 1472
2020-01-15 13:49:18 GMT 30.331808 -97.143257 13,825 69 387 1600
2020-01-15 13:49:13 GMT 30.328354 -97.153877 13,750 69 387 1600
2020-01-15 13:49:10 GMT 30.326614 -97.159317 13,600 69 385 1664
2020-01-15 13:49:07 GMT 30.325195 -97.163788 13,450 69 383 1536
2020-01-15 13:49:03 GMT 30.323057 -97.170502 13,450 69 383 1536
2020-01-15 13:49:00 GMT 30.321213 -97.176277 13,350 69 381 1536
2020-01-15 13:48:56 GMT 30.318512 -97.184685 13,250 69 381 1472
2020-01-15 13:48:53 GMT 30.316269 -97.191574 13,200 69 379 1472
2020-01-15 13:48:49 GMT 30.314119 -97.197968 12,850 69 375 1920
2020-01-15 13:48:46 GMT 30.312117 -97.204010 12,975 69 376 1792
2020-01-15 13:48:43 GMT 30.310501 -97.208916 12,900 69 376 1856
2020-01-15 13:48:40 GMT 30.308807 -97.214142 12,825 69 375 1920
2020-01-15 13:48:36 GMT 30.305374 -97.224747 12,625 69 375 1984
2020-01-15 13:48:33 GMT 30.304184 -97.228462 12,550 69 374 1920
2020-01-15 13:48:30 GMT 30.299286 -97.243492 12,275 69 372 1792
2020-01-15 13:48:26 GMT 30.299286 -97.243492 12,325 69 373 1792
2020-01-15 13:48:22 GMT 30.297089 -97.250008 12,225 68 371 1792
2020-01-15 13:48:19 GMT 30.295303 -97.255341 12,125 68 371 1792
2020-01-15 13:48:15 GMT 30.293106 -97.262016 12,025 68 370 1792
2020-01-15 13:48:12 GMT 30.291595 -97.266434 11,900 69 369 1792
2020-01-15 13:48:09 GMT 30.288940 -97.274567 11,825 69 367 1792
2020-01-15 13:48:05 GMT 30.286514 -97.281891 11,700 69 367 1792
2020-01-15 13:48:02 GMT 30.282715 -97.293633 11,600 69 366 1792
2020-01-15 13:47:58 GMT 30.282715 -97.293633 11,525 69 364 1792
2020-01-15 13:47:54 GMT 30.280380 -97.300957 11,400 69 363 1728
2020-01-15 13:47:51 GMT 30.279112 -97.304863 11,300 69 362 1728
2020-01-15 13:47:48 GMT 30.276855 -97.311890 11,250 69 361 1664
2020-01-15 13:47:44 GMT 30.274223 -97.320190 11,125 69 359 1600
2020-01-15 13:47:41 GMT 30.270452 -97.331726 10,975 69 357 1408
2020-01-15 13:47:30 GMT 30.266914 -97.342331 10,850 68 351 832
2020-01-15 13:47:26 GMT 30.264355 -97.350021 10,825 69 348 640
2020-01-15 13:47:23 GMT 30.261703 -97.357986 10,775 68 342 576
2020-01-15 13:47:20 GMT 30.260834 -97.360733 10,750 69 340 576
2020-01-15 13:47:17 GMT 30.258545 -97.367462 10,700 69 335 704
2020-01-15 13:47:12 GMT 30.256021 -97.375175 10,650 69 329 896
2020-01-15 13:47:07 GMT 30.253042 -97.384460 10,550 69 325 832
2020-01-15 13:47:04 GMT 30.249504 -97.395393 10,500 68 315 704
2020-01-15 13:46:59 GMT 30.249504 -97.395393 10,475 69 318 640
2020-01-15 13:46:55 GMT 30.247316 -97.401657 10,425 66 312 896
2020-01-15 13:46:49 GMT 30.243406 -97.411324 10,275 62 307 1984
2020-01-15 13:46:45 GMT 30.241032 -97.416542 10,125 60 306 2432
2020-01-15 13:46:38 GMT 30.236298 -97.425735 9,850 55 306 2560
2020-01-15 13:46:34 GMT 30.232498 -97.431602 9,675 49 306 2560
2020-01-15 13:46:31 GMT 30.228790 -97.436401 9,500 46 306 2624
2020-01-15 13:46:28 GMT 30.226776 -97.438820 9,400 45 306 2688
2020-01-15 13:46:25 GMT 30.223017 -97.443291 9,225 45 306 2688
2020-01-15 13:46:20 GMT 30.216267 -97.451309 8,875 45 306 2688
2020-01-15 13:46:14 GMT 30.212448 -97.455734 8,750 45 306 2624
2020-01-15 13:46:11 GMT 30.208832 -97.459930 8,600 45 306 2688
2020-01-15 13:46:07 GMT 30.205885 -97.463287 8,525 45 306 2688
2020-01-15 13:46:04 GMT 30.201881 -97.467903 8,300 44 307 2752
2020-01-15 13:45:57 GMT 30.195318 -97.475426 8,000 45 307 2752
2020-01-15 13:45:53 GMT 30.191208 -97.480179 7,800 45 308 2816
2020-01-15 13:45:50 GMT 30.187546 -97.484436 7,650 45 307 2880
2020-01-15 13:45:46 GMT 30.184937 -97.487457 7,550 45 307 2880
2020-01-15 13:45:43 GMT 30.180634 -97.492462 7,300 45 308 3008
2020-01-15 13:45:39 GMT 30.177063 -97.496605 6,950 44 307 2432
2020-01-15 13:45:36 GMT 30.174591 -97.499512 7,025 45 309 2624
2020-01-15 13:45:33 GMT 30.168690 -97.506302 6,825 45 309 2368
2020-01-15 13:45:27 GMT 30.164474 -97.511200 6,625 44 307 2432
2020-01-15 13:45:23 GMT 30.161428 -97.514648 6,400 44 306 2624
2020-01-15 13:45:20 GMT 30.157377 -97.519264 6,400 44 306 2624
2020-01-15 13:45:15 GMT 30.153374 -97.523819 6,125 44 305 2752
2020-01-15 13:45:10 GMT 30.148361 -97.529404 5,925 43 304 2688
2020-01-15 13:45:07 GMT 30.144150 -97.533928 5,600 43 303 2816
2020-01-15 13:45:04 GMT 30.142714 -97.535522 5,675 43 303 2816
2020-01-15 13:45:00 GMT 30.134399 -97.544701 5,325 43 304 3200
2020-01-15 13:44:57 GMT 30.134399 -97.544701 5,200 44 304 3072
2020-01-15 13:44:50 GMT 30.126932 -97.553154 4,875 45 304 2816
2020-01-15 13:44:47 GMT 30.121811 -97.559349 4,700 49 302 2688
2020-01-15 13:44:39 GMT 30.117462 -97.565491 4,450 53 301 2496
2020-01-15 13:44:33 GMT 30.113800 -97.572594 4,225 64 296 2368
2020-01-15 13:44:29 GMT 30.111151 -97.580460 4,000 74 289 2432
2020-01-15 13:44:26 GMT 30.110126 -97.585236 3,825 83 282 2624
2020-01-15 13:44:23 GMT 30.109772 -97.587944 3,800 84 282 2624
2020-01-15 13:44:18 GMT 30.109497 -97.596130 3,625 92 277 2304
2020-01-15 13:44:15 GMT 30.110001 -97.600922 3,175 116 255 1216
2020-01-15 13:44:12 GMT 30.110594 -97.604019 3,400 106 265 1728
2020-01-15 13:44:08 GMT 30.112782 -97.610832 3,275 116 255 1216
2020-01-15 13:44:05 GMT 30.114716 -97.614815 3,200 123 248 960
2020-01-15 13:44:02 GMT 30.115768 -97.616539 3,175 127 243 832
2020-01-15 13:43:59 GMT 30.118927 -97.620689 3,150 136 232 576
2020-01-15 13:43:52 GMT 30.124140 -97.625229 3,050 148 215 1280
2020-01-15 13:43:47 GMT 30.128189 -97.627975 2,950 149 208 1792
2020-01-15 13:43:44 GMT 30.131332 -97.630112 2,800 149 205 2176
2020-01-15 13:43:41 GMT 30.132980 -97.631241 2,725 149 204 2304
2020-01-15 13:43:36 GMT 30.137466 -97.634369 2,525 149 201 1920
2020-01-15 13:43:31 GMT 30.141586 -97.637169 2,400 149 196 1152
2020-01-15 13:43:27 GMT 30.144529 -97.639175 2,325 148 183 640
2020-01-15 13:43:23 GMT 30.147881 -97.641541 2,300 148 182 640
2020-01-15 13:43:20 GMT 30.149324 -97.642532 2,275 148 179 640
2020-01-15 13:43:15 GMT 30.153305 -97.645355 2,200 148 165 768
2020-01-15 13:43:10 GMT 30.156693 -97.647720 2,125 148 160 960
2020-01-15 13:43:04 GMT 30.159798 -97.649948 2,025 147 155 1792
2020-01-15 13:43:01 GMT 30.161865 -97.651436 1,900 146 153 1984
2020-01-15 13:42:58 GMT 30.163055 -97.652351 1,825 146 153 1984
2020-01-15 13:42:54 GMT 30.166269 -97.654724 1,650 149 150 1984
2020-01-15 13:42:49 GMT 30.169249 -97.656372 1,500 162 145 1856
2020-01-15 13:42:40 GMT 30.174974 -97.657249 1,150 178 142 2752
2020-01-15 13:42:37 GMT 30.176277 -97.657303 1,075 179 143 3008

Making use of Plane Finder data

You are free to use the raw flight data, aircraft information and images provided in this report for your own purposes provided the data is correctly attributed to Plane Finder. We ask that you please credit Plane Finder and link to planefinder.net in close proximity to the content.

Optionally one of the following logos (no smaller then 150x24px) can be used and must link to planefinder.net

Embedding the Plane Finder map

You are welcome to embed the Plane Finder playback map on your website to offer visitors a more interactive experience. We suggest using the following HTML code:

<iframe src="//planefinder.net/data/report/UA6028-N86350-7700-squawk-2020-01-15/map" width="800" height="600" seamless="seamless"></iframe>

Where our data comes from

Plane Finder has a global network of data feeds and antenna radars that receive data broadcast directly from aircraft. The primary technologies used are ADS-B and MLAT. We also show feeds from the FAA and a FLARM glider feed.

Click here to find out more about the Plane Finder network.

How we collect our data